sensor_id;sensor_type;location;lat;lon;timestamp;temperature;humidity
8214;DHT22;4148;47.974;7.824;2023-04-03T00:01:07;7.00;99.90
8214;DHT22;4148;47.974;7.824;2023-04-03T00:03:35;6.90;99.90
8214;DHT22;4148;47.974;7.824;2023-04-03T00:06:03;6.90;99.90
8214;DHT22;4148;47.974;7.824;2023-04-03T00:08:33;6.80;99.90
8214;DHT22;4148;47.974;7.824;2023-04-03T00:11:03;6.80;99.90
8214;DHT22;4148;47.974;7.824;2023-04-03T00:13:31;6.90;99.90
8214;DHT22;4148;47.974;7.824;2023-04-03T00:15:59;6.80;99.90
8214;DHT22;4148;47.974;7.824;2023-04-03T00:18:27;6.90;99.90
8214;DHT22;4148;47.974;7.824;2023-04-03T00:20:55;6.80;99.90
8214;DHT22;4148;47.974;7.824;2023-04-03T00:23:23;6.80;99.90
8214;DHT22;4148;47.974;7.824;2023-04-03T00:25:51;6.80;99.90
8214;DHT22;4148;47.974;7.824;2023-04-03T00:28:20;6.80;99.90
8214;DHT22;4148;47.974;7.824;2023-04-03T00:30:48;6.80;99.90
8214;DHT22;4148;47.974;7.824;2023-04-03T00:35:48;6.50;99.90
8214;DHT22;4148;47.974;7.824;2023-04-03T00:38:16;6.50;99.90
8214;DHT22;4148;47.974;7.824;2023-04-03T00:40:46;6.60;99.90
8214;DHT22;4148;47.974;7.824;2023-04-03T00:43:16;6.60;99.90
8214;DHT22;4148;47.974;7.824;2023-04-03T00:45:47;6.70;99.90
8214;DHT22;4148;47.974;7.824;2023-04-03T00:48:18;6.60;99.90
8214;DHT22;4148;47.974;7.824;2023-04-03T00:50:47;6.50;99.90
8214;DHT22;4148;47.974;7.824;2023-04-03T00:53:18;6.60;99.90
8214;DHT22;4148;47.974;7.824;2023-04-03T00:55:49;6.60;99.90
8214;DHT22;4148;47.974;7.824;2023-04-03T00:58:20;6.40;99.90
8214;DHT22;4148;47.974;7.824;2023-04-03T01:00:54;6.30;99.90
8214;DHT22;4148;47.974;7.824;2023-04-03T01:03:24;6.40;99.90
8214;DHT22;4148;47.974;7.824;2023-04-03T01:05:52;6.50;99.90
8214;DHT22;4148;47.974;7.824;2023-04-03T01:08:20;6.50;99.90
8214;DHT22;4148;47.974;7.824;2023-04-03T01:10:48;6.40;99.90
8214;DHT22;4148;47.974;7.824;2023-04-03T01:13:24;6.40;99.90
8214;DHT22;4148;47.974;7.824;2023-04-03T01:15:53;6.30;99.90
8214;DHT22;4148;47.974;7.824;2023-04-03T01:18:23;6.30;99.90
8214;DHT22;4148;47.974;7.824;2023-04-03T01:24:19;6.50;99.90
8214;DHT22;4148;47.974;7.824;2023-04-03T01:26:49;6.40;99.90
8214;DHT22;4148;47.974;7.824;2023-04-03T01:29:17;6.30;99.90
8214;DHT22;4148;47.974;7.824;2023-04-03T01:31:54;6.40;99.90
8214;DHT22;4148;47.974;7.824;2023-04-03T01:34:23;6.40;99.90
8214;DHT22;4148;47.974;7.824;2023-04-03T01:36:51;6.30;99.90
8214;DHT22;4148;47.974;7.824;2023-04-03T01:39:19;6.30;99.90
8214;DHT22;4148;47.974;7.824;2023-04-03T01:41:47;6.30;99.90
8214;DHT22;4148;47.974;7.824;2023-04-03T01:44:15;6.30;99.90
8214;DHT22;4148;47.974;7.824;2023-04-03T01:46:43;6.30;99.90
8214;DHT22;4148;47.974;7.824;2023-04-03T01:49:12;6.30;99.90
8214;DHT22;4148;47.974;7.824;2023-04-03T01:51:40;6.30;99.90
8214;DHT22;4148;47.974;7.824;2023-04-03T01:54:08;6.40;99.90
8214;DHT22;4148;47.974;7.824;2023-04-03T01:56:36;6.30;99.90
8214;DHT22;4148;47.974;7.824;2023-04-03T01:59:05;6.30;99.90
8214;DHT22;4148;47.974;7.824;2023-04-03T02:01:33;6.40;99.90
8214;DHT22;4148;47.974;7.824;2023-04-03T02:04:01;6.50;99.90
8214;DHT22;4148;47.974;7.824;2023-04-03T02:06:30;6.40;99.90
8214;DHT22;4148;47.974;7.824;2023-04-03T02:08:58;6.40;99.90
8214;DHT22;4148;47.974;7.824;2023-04-03T02:11:25;6.40;99.90
8214;DHT22;4148;47.974;7.824;2023-04-03T02:13:53;6.40;99.90
8214;DHT22;4148;47.974;7.824;2023-04-03T02:16:21;6.30;99.90
8214;DHT22;4148;47.974;7.824;2023-04-03T02:18:49;6.30;99.90
8214;DHT22;4148;47.974;7.824;2023-04-03T02:21:17;6.20;99.90
8214;DHT22;4148;47.974;7.824;2023-04-03T02:23:46;6.20;99.90
8214;DHT22;4148;47.974;7.824;2023-04-03T02:26:15;6.20;99.90
8214;DHT22;4148;47.974;7.824;2023-04-03T02:28:43;6.10;99.90
8214;DHT22;4148;47.974;7.824;2023-04-03T02:31:11;6.20;99.90
8214;DHT22;4148;47.974;7.824;2023-04-03T02:33:39;6.10;99.90
8214;DHT22;4148;47.974;7.824;2023-04-03T02:36:08;6.10;99.90
8214;DHT22;4148;47.974;7.824;2023-04-03T02:38:36;6.10;99.90
8214;DHT22;4148;47.974;7.824;2023-04-03T02:41:07;6.10;99.90
8214;DHT22;4148;47.974;7.824;2023-04-03T02:43:35;6.10;99.90
8214;DHT22;4148;47.974;7.824;2023-04-03T02:46:03;6.10;99.90
8214;DHT22;4148;47.974;7.824;2023-04-03T02:48:33;6.00;99.90
8214;DHT22;4148;47.974;7.824;2023-04-03T02:51:01;6.00;99.90
8214;DHT22;4148;47.974;7.824;2023-04-03T02:53:29;6.00;99.90
8214;DHT22;4148;47.974;7.824;2023-04-03T02:55:57;6.00;99.90
8214;DHT22;4148;47.974;7.824;2023-04-03T02:58:26;5.90;99.90
8214;DHT22;4148;47.974;7.824;2023-04-03T03:00:54;5.90;99.90
8214;DHT22;4148;47.974;7.824;2023-04-03T03:03:22;5.80;99.90
8214;DHT22;4148;47.974;7.824;2023-04-03T03:05:50;5.80;99.90
8214;DHT22;4148;47.974;7.824;2023-04-03T03:08:18;5.80;99.90
8214;DHT22;4148;47.974;7.824;2023-04-03T03:10:46;5.80;99.90
8214;DHT22;4148;47.974;7.824;2023-04-03T03:13:14;5.60;99.90
8214;DHT22;4148;47.974;7.824;2023-04-03T03:15:43;5.60;99.90
8214;DHT22;4148;47.974;7.824;2023-04-03T03:18:11;5.60;99.90
8214;DHT22;4148;47.974;7.824;2023-04-03T03:20:39;5.70;99.90
8214;DHT22;4148;47.974;7.824;2023-04-03T03:23:07;5.70;99.90
8214;DHT22;4148;47.974;7.824;2023-04-03T03:25:38;5.60;99.90
8214;DHT22;4148;47.974;7.824;2023-04-03T03:28:06;5.60;99.90
8214;DHT22;4148;47.974;7.824;2023-04-03T03:30:34;5.50;99.90
8214;DHT22;4148;47.974;7.824;2023-04-03T03:33:03;5.60;99.90
8214;DHT22;4148;47.974;7.824;2023-04-03T03:35:31;5.60;99.90
8214;DHT22;4148;47.974;7.824;2023-04-03T03:37:59;5.60;99.90
8214;DHT22;4148;47.974;7.824;2023-04-03T03:40:27;5.50;99.90
8214;DHT22;4148;47.974;7.824;2023-04-03T03:42:55;5.60;99.90
8214;DHT22;4148;47.974;7.824;2023-04-03T03:45:23;5.50;99.90
8214;DHT22;4148;47.974;7.824;2023-04-03T03:47:51;5.50;99.90
8214;DHT22;4148;47.974;7.824;2023-04-03T03:50:20;5.50;99.90
8214;DHT22;4148;47.974;7.824;2023-04-03T03:52:48;5.40;99.90
8214;DHT22;4148;47.974;7.824;2023-04-03T03:55:16;5.50;99.90
8214;DHT22;4148;47.974;7.824;2023-04-03T03:57:44;5.40;99.90
8214;DHT22;4148;47.974;7.824;2023-04-03T04:00:13;5.40;99.90
8214;DHT22;4148;47.974;7.824;2023-04-03T04:02:41;5.40;99.90
8214;DHT22;4148;47.974;7.824;2023-04-03T04:05:09;5.50;99.90
8214;DHT22;4148;47.974;7.824;2023-04-03T04:07:38;5.50;99.90
8214;DHT22;4148;47.974;7.824;2023-04-03T04:10:07;5.40;99.90
8214;DHT22;4148;47.974;7.824;2023-04-03T04:12:35;5.60;99.90
8214;DHT22;4148;47.974;7.824;2023-04-03T04:15:03;5.50;99.90
8214;DHT22;4148;47.974;7.824;2023-04-03T04:17:31;5.60;99.90
8214;DHT22;4148;47.974;7.824;2023-04-03T04:19:59;5.60;99.90
8214;DHT22;4148;47.974;7.824;2023-04-03T04:22:27;5.60;99.90
8214;DHT22;4148;47.974;7.824;2023-04-03T04:24:56;5.70;99.90
8214;DHT22;4148;47.974;7.824;2023-04-03T04:27:24;5.70;99.90
8214;DHT22;4148;47.974;7.824;2023-04-03T04:29:52;5.80;99.90
8214;DHT22;4148;47.974;7.824;2023-04-03T04:32:19;5.80;99.90
8214;DHT22;4148;47.974;7.824;2023-04-03T04:34:47;5.80;99.90
8214;DHT22;4148;47.974;7.824;2023-04-03T04:37:15;5.80;99.90
8214;DHT22;4148;47.974;7.824;2023-04-03T04:39:43;5.80;99.90
8214;DHT22;4148;47.974;7.824;2023-04-03T04:42:12;5.70;99.90
8214;DHT22;4148;47.974;7.824;2023-04-03T04:44:43;5.70;99.90
8214;DHT22;4148;47.974;7.824;2023-04-03T04:47:11;5.70;99.90
8214;DHT22;4148;47.974;7.824;2023-04-03T04:49:39;5.70;99.90
8214;DHT22;4148;47.974;7.824;2023-04-03T04:52:07;5.80;99.90
8214;DHT22;4148;47.974;7.824;2023-04-03T04:54:35;5.80;99.90
8214;DHT22;4148;47.974;7.824;2023-04-03T04:57:03;5.80;99.90
8214;DHT22;4148;47.974;7.824;2023-04-03T04:59:32;5.80;99.90
8214;DHT22;4148;47.974;7.824;2023-04-03T05:02:00;5.80;99.90
8214;DHT22;4148;47.974;7.824;2023-04-03T05:04:28;5.80;99.90
8214;DHT22;4148;47.974;7.824;2023-04-03T05:06:56;5.80;99.90
8214;DHT22;4148;47.974;7.824;2023-04-03T05:09:24;5.80;99.90
8214;DHT22;4148;47.974;7.824;2023-04-03T05:11:52;5.80;99.90
8214;DHT22;4148;47.974;7.824;2023-04-03T05:14:20;5.80;99.90
8214;DHT22;4148;47.974;7.824;2023-04-03T05:16:49;5.80;99.90
8214;DHT22;4148;47.974;7.824;2023-04-03T05:19:19;5.80;99.90
8214;DHT22;4148;47.974;7.824;2023-04-03T05:21:47;5.90;99.90
8214;DHT22;4148;47.974;7.824;2023-04-03T05:24:15;5.80;99.90
8214;DHT22;4148;47.974;7.824;2023-04-03T05:26:44;5.80;99.90
8214;DHT22;4148;47.974;7.824;2023-04-03T05:29:12;5.80;99.90
8214;DHT22;4148;47.974;7.824;2023-04-03T05:31:39;5.90;99.90
8214;DHT22;4148;47.974;7.824;2023-04-03T05:34:09;5.90;99.90
8214;DHT22;4148;47.974;7.824;2023-04-03T05:36:37;5.90;99.90
8214;DHT22;4148;47.974;7.824;2023-04-03T05:39:04;5.80;99.90
8214;DHT22;4148;47.974;7.824;2023-04-03T05:41:32;5.80;99.90
8214;DHT22;4148;47.974;7.824;2023-04-03T05:44:00;5.70;99.90
8214;DHT22;4148;47.974;7.824;2023-04-03T05:46:28;5.80;99.90
8214;DHT22;4148;47.974;7.824;2023-04-03T05:48:56;6.00;99.90
8214;DHT22;4148;47.974;7.824;2023-04-03T05:51:28;5.90;99.90
8214;DHT22;4148;47.974;7.824;2023-04-03T05:54:00;5.90;99.90
8214;DHT22;4148;47.974;7.824;2023-04-03T05:56:30;5.90;99.90
8214;DHT22;4148;47.974;7.824;2023-04-03T05:58:58;6.00;99.90
8214;DHT22;4148;47.974;7.824;2023-04-03T06:01:26;5.90;99.90
8214;DHT22;4148;47.974;7.824;2023-04-03T06:03:53;5.90;99.90
8214;DHT22;4148;47.974;7.824;2023-04-03T06:06:22;6.00;99.90
8214;DHT22;4148;47.974;7.824;2023-04-03T06:08:51;6.00;99.90
8214;DHT22;4148;47.974;7.824;2023-04-03T06:11:19;6.10;99.90
8214;DHT22;4148;47.974;7.824;2023-04-03T06:13:48;6.20;99.90
8214;DHT22;4148;47.974;7.824;2023-04-03T06:16:17;6.30;99.90
8214;DHT22;4148;47.974;7.824;2023-04-03T06:18:46;6.20;99.90
8214;DHT22;4148;47.974;7.824;2023-04-03T06:21:13;6.20;99.90
8214;DHT22;4148;47.974;7.824;2023-04-03T06:23:41;6.30;99.90
8214;DHT22;4148;47.974;7.824;2023-04-03T06:26:10;6.40;99.90
8214;DHT22;4148;47.974;7.824;2023-04-03T06:28:38;6.50;99.90
8214;DHT22;4148;47.974;7.824;2023-04-03T06:31:06;6.50;99.90
8214;DHT22;4148;47.974;7.824;2023-04-03T06:33:34;6.60;99.90
8214;DHT22;4148;47.974;7.824;2023-04-03T06:36:04;6.60;99.90
8214;DHT22;4148;47.974;7.824;2023-04-03T06:38:33;6.70;99.90
8214;DHT22;4148;47.974;7.824;2023-04-03T06:41:01;6.70;99.90
8214;DHT22;4148;47.974;7.824;2023-04-03T06:43:30;6.80;99.90
8214;DHT22;4148;47.974;7.824;2023-04-03T06:46:00;6.80;99.90
8214;DHT22;4148;47.974;7.824;2023-04-03T06:48:28;6.90;99.90
8214;DHT22;4148;47.974;7.824;2023-04-03T06:50:56;6.90;99.90
8214;DHT22;4148;47.974;7.824;2023-04-03T06:53:24;6.90;99.90
8214;DHT22;4148;47.974;7.824;2023-04-03T06:55:52;6.80;99.90
8214;DHT22;4148;47.974;7.824;2023-04-03T06:58:20;6.80;99.90
8214;DHT22;4148;47.974;7.824;2023-04-03T07:00:50;7.00;99.90
8214;DHT22;4148;47.974;7.824;2023-04-03T07:03:18;6.90;99.90
8214;DHT22;4148;47.974;7.824;2023-04-03T07:05:45;6.80;99.90
8214;DHT22;4148;47.974;7.824;2023-04-03T07:08:13;6.80;99.90
8214;DHT22;4148;47.974;7.824;2023-04-03T07:10:41;6.80;99.90
8214;DHT22;4148;47.974;7.824;2023-04-03T07:13:09;6.80;99.90
8214;DHT22;4148;47.974;7.824;2023-04-03T07:15:37;6.90;99.90
8214;DHT22;4148;47.974;7.824;2023-04-03T07:18:06;6.90;99.90
8214;DHT22;4148;47.974;7.824;2023-04-03T07:20:35;7.00;99.90
8214;DHT22;4148;47.974;7.824;2023-04-03T07:23:02;7.00;99.90
8214;DHT22;4148;47.974;7.824;2023-04-03T07:25:31;7.00;99.90
8214;DHT22;4148;47.974;7.824;2023-04-03T07:28:00;7.00;99.90
8214;DHT22;4148;47.974;7.824;2023-04-03T07:30:28;7.10;99.90
8214;DHT22;4148;47.974;7.824;2023-04-03T07:32:56;7.10;99.90
8214;DHT22;4148;47.974;7.824;2023-04-03T07:35:25;6.90;99.90
8214;DHT22;4148;47.974;7.824;2023-04-03T07:37:53;6.90;99.90
8214;DHT22;4148;47.974;7.824;2023-04-03T07:40:20;6.90;99.90
8214;DHT22;4148;47.974;7.824;2023-04-03T07:42:48;7.10;99.90
8214;DHT22;4148;47.974;7.824;2023-04-03T07:45:16;7.00;99.90
8214;DHT22;4148;47.974;7.824;2023-04-03T07:47:45;7.00;99.90
8214;DHT22;4148;47.974;7.824;2023-04-03T07:50:14;7.10;99.90
8214;DHT22;4148;47.974;7.824;2023-04-03T07:52:44;7.20;99.90
8214;DHT22;4148;47.974;7.824;2023-04-03T07:55:12;7.20;99.90
8214;DHT22;4148;47.974;7.824;2023-04-03T07:57:40;7.30;99.90
8214;DHT22;4148;47.974;7.824;2023-04-03T08:00:10;7.40;99.90
8214;DHT22;4148;47.974;7.824;2023-04-03T08:02:38;7.20;99.90
8214;DHT22;4148;47.974;7.824;2023-04-03T08:05:07;7.30;99.90
8214;DHT22;4148;47.974;7.824;2023-04-03T08:07:36;7.20;99.90
8214;DHT22;4148;47.974;7.824;2023-04-03T08:10:06;7.10;99.90
8214;DHT22;4148;47.974;7.824;2023-04-03T08:12:34;7.20;99.90
8214;DHT22;4148;47.974;7.824;2023-04-03T08:15:04;7.10;99.90
8214;DHT22;4148;47.974;7.824;2023-04-03T08:17:32;7.10;99.90
8214;DHT22;4148;47.974;7.824;2023-04-03T08:20:01;7.20;99.90
8214;DHT22;4148;47.974;7.824;2023-04-03T08:22:29;7.40;99.90
8214;DHT22;4148;47.974;7.824;2023-04-03T08:24:57;7.60;99.90
8214;DHT22;4148;47.974;7.824;2023-04-03T08:27:27;7.60;99.90
8214;DHT22;4148;47.974;7.824;2023-04-03T08:29:55;7.70;99.90
8214;DHT22;4148;47.974;7.824;2023-04-03T08:32:23;7.90;99.90
8214;DHT22;4148;47.974;7.824;2023-04-03T08:34:51;7.90;99.90
8214;DHT22;4148;47.974;7.824;2023-04-03T08:37:19;7.90;99.90
8214;DHT22;4148;47.974;7.824;2023-04-03T08:39:47;7.80;99.90
8214;DHT22;4148;47.974;7.824;2023-04-03T08:42:19;7.90;99.90
8214;DHT22;4148;47.974;7.824;2023-04-03T08:44:57;7.90;99.90
8214;DHT22;4148;47.974;7.824;2023-04-03T08:47:30;7.80;99.90
8214;DHT22;4148;47.974;7.824;2023-04-03T08:50:05;7.90;99.90
8214;DHT22;4148;47.974;7.824;2023-04-03T08:52:39;7.70;99.90
8214;DHT22;4148;47.974;7.824;2023-04-03T08:55:17;7.30;99.90
8214;DHT22;4148;47.974;7.824;2023-04-03T08:57:48;7.10;99.90
8214;DHT22;4148;47.974;7.824;2023-04-03T09:00:20;7.40;99.90
8214;DHT22;4148;47.974;7.824;2023-04-03T09:02:52;7.70;99.90
8214;DHT22;4148;47.974;7.824;2023-04-03T09:05:24;7.90;99.90
8214;DHT22;4148;47.974;7.824;2023-04-03T09:07:59;8.10;99.90
8214;DHT22;4148;47.974;7.824;2023-04-03T09:10:30;8.10;99.90
8214;DHT22;4148;47.974;7.824;2023-04-03T09:13:04;8.30;99.90
8214;DHT22;4148;47.974;7.824;2023-04-03T09:15:35;8.90;99.90
8214;DHT22;4148;47.974;7.824;2023-04-03T09:18:11;8.70;99.90
8214;DHT22;4148;47.974;7.824;2023-04-03T09:20:46;8.60;99.90
8214;DHT22;4148;47.974;7.824;2023-04-03T09:23:21;9.30;99.90
8214;DHT22;4148;47.974;7.824;2023-04-03T09:25:52;9.50;99.90
8214;DHT22;4148;47.974;7.824;2023-04-03T09:28:21;9.70;99.90
8214;DHT22;4148;47.974;7.824;2023-04-03T09:30:50;9.70;99.90
8214;DHT22;4148;47.974;7.824;2023-04-03T09:33:18;10.10;99.90
8214;DHT22;4148;47.974;7.824;2023-04-03T09:35:47;10.20;99.90
8214;DHT22;4148;47.974;7.824;2023-04-03T09:38:19;10.90;99.90
8214;DHT22;4148;47.974;7.824;2023-04-03T09:40:49;12.00;98.70
8214;DHT22;4148;47.974;7.824;2023-04-03T09:43:29;11.00;97.00
8214;DHT22;4148;47.974;7.824;2023-04-03T09:46:17;11.80;98.40
8214;DHT22;4148;47.974;7.824;2023-04-03T09:48:56;11.50;95.60
8214;DHT22;4148;47.974;7.824;2023-04-03T09:51:35;11.10;95.70
8214;DHT22;4148;47.974;7.824;2023-04-03T09:54:25;11.10;97.30
8214;DHT22;4148;47.974;7.824;2023-04-03T09:56:54;10.80;96.10
8214;DHT22;4148;47.974;7.824;2023-04-03T09:59:23;11.10;93.30
8214;DHT22;4148;47.974;7.824;2023-04-03T10:02:00;10.90;93.30
8214;DHT22;4148;47.974;7.824;2023-04-03T10:04:39;10.30;92.80
8214;DHT22;4148;47.974;7.824;2023-04-03T10:07:28;10.00;95.00
8214;DHT22;4148;47.974;7.824;2023-04-03T10:09:57;10.10;94.70
8214;DHT22;4148;47.974;7.824;2023-04-03T10:12:25;9.60;94.10
8214;DHT22;4148;47.974;7.824;2023-04-03T10:14:57;9.10;94.90
8214;DHT22;4148;47.974;7.824;2023-04-03T10:17:36;8.80;95.30
8214;DHT22;4148;47.974;7.824;2023-04-03T10:20:16;8.60;96.40
8214;DHT22;4148;47.974;7.824;2023-04-03T10:23:00;9.00;96.60
8214;DHT22;4148;47.974;7.824;2023-04-03T10:25:34;9.00;95.40
8214;DHT22;4148;47.974;7.824;2023-04-03T10:28:11;9.20;97.00
8214;DHT22;4148;47.974;7.824;2023-04-03T10:30:46;9.30;95.30
8214;DHT22;4148;47.974;7.824;2023-04-03T10:33:45;9.40;96.00
8214;DHT22;4148;47.974;7.824;2023-04-03T10:36:23;9.10;95.50
8214;DHT22;4148;47.974;7.824;2023-04-03T10:38:59;8.70;96.30
8214;DHT22;4148;47.974;7.824;2023-04-03T10:41:38;8.60;95.70
8214;DHT22;4148;47.974;7.824;2023-04-03T10:44:14;8.40;96.60
8214;DHT22;4148;47.974;7.824;2023-04-03T10:46:46;8.30;95.90
8214;DHT22;4148;47.974;7.824;2023-04-03T10:49:31;8.20;96.40
8214;DHT22;4148;47.974;7.824;2023-04-03T10:52:06;8.00;97.00
8214;DHT22;4148;47.974;7.824;2023-04-03T10:54:39;8.00;97.30
8214;DHT22;4148;47.974;7.824;2023-04-03T10:57:10;7.80;97.00
8214;DHT22;4148;47.974;7.824;2023-04-03T10:59:43;7.80;97.10
8214;DHT22;4148;47.974;7.824;2023-04-03T11:02:17;7.80;96.90
8214;DHT22;4148;47.974;7.824;2023-04-03T11:04:51;7.70;97.30
8214;DHT22;4148;47.974;7.824;2023-04-03T11:07:23;7.70;97.30
8214;DHT22;4148;47.974;7.824;2023-04-03T11:09:56;7.60;97.70
8214;DHT22;4148;47.974;7.824;2023-04-03T11:12:28;7.70;98.40
8214;DHT22;4148;47.974;7.824;2023-04-03T11:14:58;8.00;98.20
8214;DHT22;4148;47.974;7.824;2023-04-03T11:17:35;7.90;97.10
8214;DHT22;4148;47.974;7.824;2023-04-03T11:20:10;7.90;98.60
8214;DHT22;4148;47.974;7.824;2023-04-03T11:22:43;7.80;98.00
8214;DHT22;4148;47.974;7.824;2023-04-03T11:25:19;8.10;97.80
8214;DHT22;4148;47.974;7.824;2023-04-03T11:27:53;8.00;97.70
8214;DHT22;4148;47.974;7.824;2023-04-03T11:30:25;8.00;98.10
8214;DHT22;4148;47.974;7.824;2023-04-03T11:33:05;8.00;97.80
8214;DHT22;4148;47.974;7.824;2023-04-03T11:35:37;8.00;97.90
8214;DHT22;4148;47.974;7.824;2023-04-03T11:38:17;8.20;98.30
8214;DHT22;4148;47.974;7.824;2023-04-03T11:40:47;8.20;98.10
8214;DHT22;4148;47.974;7.824;2023-04-03T11:43:22;8.10;98.10
8214;DHT22;4148;47.974;7.824;2023-04-03T11:45:54;8.20;97.60
8214;DHT22;4148;47.974;7.824;2023-04-03T11:48:48;8.00;98.00
8214;DHT22;4148;47.974;7.824;2023-04-03T11:51:39;8.00;98.40
8214;DHT22;4148;47.974;7.824;2023-04-03T11:54:36;7.90;98.40
8214;DHT22;4148;47.974;7.824;2023-04-03T11:57:44;8.00;98.30
8214;DHT22;4148;47.974;7.824;2023-04-03T12:00:51;8.10;98.40
8214;DHT22;4148;47.974;7.824;2023-04-03T12:03:34;8.20;97.90
8214;DHT22;4148;47.974;7.824;2023-04-03T12:06:50;8.30;97.60
8214;DHT22;4148;47.974;7.824;2023-04-03T12:09:34;8.20;97.60
8214;DHT22;4148;47.974;7.824;2023-04-03T12:12:26;8.40;98.00
8214;DHT22;4148;47.974;7.824;2023-04-03T12:14:55;8.40;98.10
8214;DHT22;4148;47.974;7.824;2023-04-03T12:17:26;8.60;98.50
8214;DHT22;4148;47.974;7.824;2023-04-03T12:19:56;8.60;97.90
8214;DHT22;4148;47.974;7.824;2023-04-03T12:22:25;8.60;98.00
8214;DHT22;4148;47.974;7.824;2023-04-03T12:24:53;8.70;98.10
8214;DHT22;4148;47.974;7.824;2023-04-03T12:27:27;8.60;98.20
8214;DHT22;4148;47.974;7.824;2023-04-03T12:30:01;8.60;97.80
8214;DHT22;4148;47.974;7.824;2023-04-03T12:32:48;8.50;98.00
8214;DHT22;4148;47.974;7.824;2023-04-03T12:35:37;8.60;97.80
8214;DHT22;4148;47.974;7.824;2023-04-03T12:38:34;8.70;97.20
8214;DHT22;4148;47.974;7.824;2023-04-03T12:41:26;8.60;97.40
8214;DHT22;4148;47.974;7.824;2023-04-03T12:44:05;8.50;98.40
8214;DHT22;4148;47.974;7.824;2023-04-03T12:46:37;8.50;98.10
8214;DHT22;4148;47.974;7.824;2023-04-03T12:49:32;8.50;97.20
8214;DHT22;4148;47.974;7.824;2023-04-03T12:52:02;8.30;97.20
8214;DHT22;4148;47.974;7.824;2023-04-03T12:54:36;8.20;96.20
8214;DHT22;4148;47.974;7.824;2023-04-03T12:57:11;8.30;97.50
8214;DHT22;4148;47.974;7.824;2023-04-03T12:59:39;8.50;97.50
8214;DHT22;4148;47.974;7.824;2023-04-03T13:02:23;8.60;98.00
8214;DHT22;4148;47.974;7.824;2023-04-03T13:04:52;8.70;98.00
8214;DHT22;4148;47.974;7.824;2023-04-03T13:07:26;8.80;97.00
8214;DHT22;4148;47.974;7.824;2023-04-03T13:10:09;8.90;97.10
8214;DHT22;4148;47.974;7.824;2023-04-03T13:12:47;8.70;97.10
8214;DHT22;4148;47.974;7.824;2023-04-03T13:15:17;8.50;97.60
8214;DHT22;4148;47.974;7.824;2023-04-03T13:17:46;8.60;97.70
8214;DHT22;4148;47.974;7.824;2023-04-03T13:20:20;8.40;97.20
8214;DHT22;4148;47.974;7.824;2023-04-03T13:22:52;8.50;97.30
8214;DHT22;4148;47.974;7.824;2023-04-03T13:25:25;8.50;97.10
8214;DHT22;4148;47.974;7.824;2023-04-03T13:27:54;8.50;97.00
8214;DHT22;4148;47.974;7.824;2023-04-03T13:30:39;8.40;96.40
8214;DHT22;4148;47.974;7.824;2023-04-03T13:33:20;8.30;96.50
8214;DHT22;4148;47.974;7.824;2023-04-03T13:35:55;8.50;97.30
8214;DHT22;4148;47.974;7.824;2023-04-03T13:38:25;8.50;96.90
8214;DHT22;4148;47.974;7.824;2023-04-03T13:40:57;8.50;97.20
8214;DHT22;4148;47.974;7.824;2023-04-03T13:43:28;8.60;96.90
8214;DHT22;4148;47.974;7.824;2023-04-03T13:46:00;8.50;96.90
8214;DHT22;4148;47.974;7.824;2023-04-03T13:48:40;8.50;97.20
8214;DHT22;4148;47.974;7.824;2023-04-03T13:51:19;8.50;96.70
8214;DHT22;4148;47.974;7.824;2023-04-03T13:53:51;8.50;97.10
8214;DHT22;4148;47.974;7.824;2023-04-03T13:56:29;8.60;97.90
8214;DHT22;4148;47.974;7.824;2023-04-03T13:59:03;8.70;97.30
8214;DHT22;4148;47.974;7.824;2023-04-03T14:01:51;8.70;96.70
8214;DHT22;4148;47.974;7.824;2023-04-03T14:04:23;8.70;96.60
8214;DHT22;4148;47.974;7.824;2023-04-03T14:06:52;8.50;96.00
8214;DHT22;4148;47.974;7.824;2023-04-03T14:09:22;8.40;96.90
8214;DHT22;4148;47.974;7.824;2023-04-03T14:11:53;8.50;96.20
8214;DHT22;4148;47.974;7.824;2023-04-03T14:14:27;8.30;96.40
8214;DHT22;4148;47.974;7.824;2023-04-03T14:16:57;8.30;96.00
8214;DHT22;4148;47.974;7.824;2023-04-03T14:19:28;8.30;96.70
8214;DHT22;4148;47.974;7.824;2023-04-03T14:21:56;8.50;96.30
8214;DHT22;4148;47.974;7.824;2023-04-03T14:24:25;8.50;95.90
8214;DHT22;4148;47.974;7.824;2023-04-03T14:26:55;8.50;95.90
8214;DHT22;4148;47.974;7.824;2023-04-03T14:29:23;8.50;96.20
8214;DHT22;4148;47.974;7.824;2023-04-03T14:31:51;8.50;96.40
8214;DHT22;4148;47.974;7.824;2023-04-03T14:34:37;8.50;95.80
8214;DHT22;4148;47.974;7.824;2023-04-03T14:37:05;8.50;96.80
8214;DHT22;4148;47.974;7.824;2023-04-03T14:39:36;8.40;95.80
8214;DHT22;4148;47.974;7.824;2023-04-03T14:42:05;8.40;95.50
8214;DHT22;4148;47.974;7.824;2023-04-03T14:44:34;8.50;95.60
8214;DHT22;4148;47.974;7.824;2023-04-03T14:47:01;8.50;95.60
8214;DHT22;4148;47.974;7.824;2023-04-03T14:49:30;8.40;95.80
8214;DHT22;4148;47.974;7.824;2023-04-03T14:51:58;8.40;96.80
8214;DHT22;4148;47.974;7.824;2023-04-03T14:54:27;8.40;95.20
8214;DHT22;4148;47.974;7.824;2023-04-03T14:56:57;8.40;95.80
8214;DHT22;4148;47.974;7.824;2023-04-03T14:59:28;8.30;95.80
8214;DHT22;4148;47.974;7.824;2023-04-03T15:01:56;8.30;95.60
8214;DHT22;4148;47.974;7.824;2023-04-03T15:04:24;8.30;95.30
8214;DHT22;4148;47.974;7.824;2023-04-03T15:06:52;8.30;96.20
8214;DHT22;4148;47.974;7.824;2023-04-03T15:09:22;8.20;95.30
8214;DHT22;4148;47.974;7.824;2023-04-03T15:11:53;8.20;96.20
8214;DHT22;4148;47.974;7.824;2023-04-03T15:14:22;7.90;95.00
8214;DHT22;4148;47.974;7.824;2023-04-03T15:17:04;7.80;95.20
8214;DHT22;4148;47.974;7.824;2023-04-03T15:19:37;7.80;95.40
8214;DHT22;4148;47.974;7.824;2023-04-03T15:22:05;7.90;95.70
8214;DHT22;4148;47.974;7.824;2023-04-03T15:24:33;8.00;94.70
8214;DHT22;4148;47.974;7.824;2023-04-03T15:27:01;7.90;95.00
8214;DHT22;4148;47.974;7.824;2023-04-03T15:29:29;7.90;95.60
8214;DHT22;4148;47.974;7.824;2023-04-03T15:31:57;7.90;94.70
8214;DHT22;4148;47.974;7.824;2023-04-03T15:34:26;7.90;94.80
8214;DHT22;4148;47.974;7.824;2023-04-03T15:36:55;7.90;95.60
8214;DHT22;4148;47.974;7.824;2023-04-03T15:39:24;8.00;94.90
8214;DHT22;4148;47.974;7.824;2023-04-03T15:41:53;8.00;94.70
8214;DHT22;4148;47.974;7.824;2023-04-03T15:44:21;8.00;94.10
8214;DHT22;4148;47.974;7.824;2023-04-03T15:46:49;8.10;94.30
8214;DHT22;4148;47.974;7.824;2023-04-03T15:49:18;8.10;94.90
8214;DHT22;4148;47.974;7.824;2023-04-03T15:51:47;8.10;94.30
8214;DHT22;4148;47.974;7.824;2023-04-03T15:54:15;8.10;94.70
8214;DHT22;4148;47.974;7.824;2023-04-03T15:56:44;8.10;94.60
8214;DHT22;4148;47.974;7.824;2023-04-03T15:59:12;8.10;94.60
8214;DHT22;4148;47.974;7.824;2023-04-03T16:01:40;8.00;94.10
8214;DHT22;4148;47.974;7.824;2023-04-03T16:04:08;8.00;94.90
8214;DHT22;4148;47.974;7.824;2023-04-03T16:06:37;8.10;94.60
8214;DHT22;4148;47.974;7.824;2023-04-03T16:09:07;7.90;93.60
8214;DHT22;4148;47.974;7.824;2023-04-03T16:11:35;7.90;93.80
8214;DHT22;4148;47.974;7.824;2023-04-03T16:14:06;7.90;94.10
8214;DHT22;4148;47.974;7.824;2023-04-03T16:16:35;7.80;94.10
8214;DHT22;4148;47.974;7.824;2023-04-03T16:19:03;7.70;94.40
8214;DHT22;4148;47.974;7.824;2023-04-03T16:21:32;7.80;93.90
8214;DHT22;4148;47.974;7.824;2023-04-03T16:24:01;7.60;92.70
8214;DHT22;4148;47.974;7.824;2023-04-03T16:26:31;7.60;93.00
8214;DHT22;4148;47.974;7.824;2023-04-03T16:28:59;7.60;92.80
8214;DHT22;4148;47.974;7.824;2023-04-03T16:31:27;7.70;93.00
8214;DHT22;4148;47.974;7.824;2023-04-03T16:33:55;7.70;93.30
8214;DHT22;4148;47.974;7.824;2023-04-03T16:36:24;7.60;92.90
8214;DHT22;4148;47.974;7.824;2023-04-03T16:38:52;7.50;92.80
8214;DHT22;4148;47.974;7.824;2023-04-03T16:41:20;7.60;93.40
8214;DHT22;4148;47.974;7.824;2023-04-03T16:43:49;7.60;93.30
8214;DHT22;4148;47.974;7.824;2023-04-03T16:46:17;7.60;93.10
8214;DHT22;4148;47.974;7.824;2023-04-03T16:48:45;7.60;93.60